createdAt,value
2022-10-16T00:01:50.510Z,14.32
2022-10-16T00:04:19.136Z,14.39
2022-10-16T00:06:47.795Z,14.38
2022-10-16T00:09:16.365Z,14.35
2022-10-16T00:11:46.435Z,14.34
2022-10-16T00:14:17.001Z,14.33
2022-10-16T00:16:45.973Z,14.32
2022-10-16T00:19:14.642Z,14.31
2022-10-16T00:21:43.538Z,14.29
2022-10-16T00:24:22.255Z,14.27
2022-10-16T00:26:53.392Z,14.27
2022-10-16T00:29:22.713Z,14.23
2022-10-16T00:31:51.139Z,14.15
2022-10-16T00:34:19.859Z,14.17
2022-10-16T00:36:48.415Z,14.10
2022-10-16T00:39:17.104Z,14.03
2022-10-16T00:41:45.743Z,14.01
2022-10-16T00:44:35.381Z,13.94
2022-10-16T00:47:05.385Z,13.83
2022-10-16T00:49:33.997Z,13.77
2022-10-16T00:52:02.636Z,13.65
2022-10-16T00:54:33.421Z,13.52
2022-10-16T00:57:04.692Z,13.40
2022-10-16T00:59:35.945Z,13.36
2022-10-16T01:02:07.512Z,13.37
2022-10-16T01:04:41.676Z,13.32
2022-10-16T01:07:17.594Z,13.35
2022-10-16T01:10:00.457Z,13.33
2022-10-16T01:12:45.426Z,13.31
2022-10-16T01:15:24.763Z,13.34
2022-10-16T01:18:02.645Z,13.39
2022-10-16T01:20:39.315Z,13.43
2022-10-16T01:23:17.940Z,13.47
2022-10-16T01:26:13.138Z,13.50
2022-10-16T01:28:48.889Z,13.53
2022-10-16T01:31:21.225Z,13.52
2022-10-16T01:33:58.655Z,13.52
2022-10-16T01:36:33.569Z,13.48
2022-10-16T01:39:04.281Z,13.47
2022-10-16T01:41:37.450Z,13.49
2022-10-16T01:44:11.096Z,13.48
2022-10-16T01:46:44.212Z,13.43
2022-10-16T01:49:14.582Z,13.39
2022-10-16T01:51:46.802Z,13.31
2022-10-16T01:54:18.873Z,13.30
2022-10-16T01:56:51.196Z,13.27
2022-10-16T01:59:26.517Z,13.22
2022-10-16T02:01:58.631Z,13.22
2022-10-16T02:04:33.685Z,13.24
2022-10-16T02:07:03.443Z,13.24
2022-10-16T02:09:33.266Z,13.21
2022-10-16T02:12:08.944Z,13.25
2022-10-16T02:14:41.273Z,13.25
2022-10-16T02:17:15.113Z,13.23
2022-10-16T02:19:45.336Z,13.21
2022-10-16T02:22:20.723Z,13.20
2022-10-16T02:24:54.867Z,13.21
2022-10-16T02:27:30.044Z,13.21
2022-10-16T02:30:09.155Z,13.19
2022-10-16T02:32:42.226Z,13.18
2022-10-16T02:35:12.555Z,13.16
2022-10-16T02:37:42.934Z,13.17
2022-10-16T02:40:13.913Z,13.12
2022-10-16T02:42:43.087Z,13.10
2022-10-16T02:45:13.924Z,13.10
2022-10-16T02:47:42.727Z,13.07
2022-10-16T02:50:11.444Z,13.07
2022-10-16T02:52:40.234Z,13.06
2022-10-16T02:55:09.712Z,13.04
2022-10-16T02:57:41.614Z,13.05
2022-10-16T03:00:15.349Z,13.04
2022-10-16T03:02:44.122Z,13.03
2022-10-16T03:05:12.855Z,13.04
2022-10-16T03:07:41.613Z,13.02
2022-10-16T03:10:10.898Z,13.04
2022-10-16T03:12:39.576Z,13.03
2022-10-16T03:15:09.134Z,13.03
2022-10-16T03:17:38.904Z,13.04
2022-10-16T03:20:07.695Z,13.06
2022-10-16T03:22:36.313Z,13.05
2022-10-16T03:25:05.232Z,13.04
2022-10-16T03:27:33.890Z,13.01
2022-10-16T03:30:02.477Z,13.04
2022-10-16T03:32:31.995Z,13.04
2022-10-16T03:35:02.123Z,13.04
2022-10-16T03:37:30.832Z,13.02
2022-10-16T03:40:00.555Z,13.03
2022-10-16T03:42:29.055Z,13.04
2022-10-16T03:44:57.688Z,13.06
2022-10-16T03:47:26.575Z,13.05
2022-10-16T03:49:55.386Z,13.04
2022-10-16T03:52:25.523Z,13.07
2022-10-16T03:54:54.414Z,13.07
2022-10-16T03:57:23.170Z,13.08
2022-10-16T03:59:52.051Z,13.10
2022-10-16T04:02:20.621Z,13.09
2022-10-16T04:04:49.257Z,13.08
2022-10-16T04:07:17.782Z,13.09
2022-10-16T04:09:47.834Z,13.09
2022-10-16T04:12:16.467Z,13.09
2022-10-16T04:14:45.523Z,13.11
2022-10-16T04:17:14.363Z,13.10
2022-10-16T04:19:42.961Z,13.11
2022-10-16T04:22:12.042Z,13.06
2022-10-16T04:24:40.976Z,13.02
2022-10-16T04:27:11.234Z,12.99
2022-10-16T04:29:39.706Z,12.97
2022-10-16T04:32:10.354Z,12.95
2022-10-16T04:34:41.654Z,12.91
2022-10-16T04:37:10.376Z,12.89
2022-10-16T04:39:38.878Z,12.87
2022-10-16T04:42:07.793Z,12.88
2022-10-16T04:44:38.992Z,12.88
2022-10-16T04:47:07.657Z,12.88
2022-10-16T04:49:36.348Z,12.88
2022-10-16T04:52:05.494Z,12.84
2022-10-16T04:54:34.143Z,12.84
2022-10-16T04:57:02.902Z,12.92
2022-10-16T04:59:31.451Z,12.67
2022-10-16T05:02:01.676Z,12.96
2022-10-16T05:04:30.293Z,12.95
2022-10-16T05:06:58.791Z,12.94
2022-10-16T05:09:27.620Z,12.98
2022-10-16T05:11:56.163Z,12.98
2022-10-16T05:14:24.792Z,12.97
2022-10-16T05:16:53.574Z,12.97
2022-10-16T05:19:27.190Z,12.95
2022-10-16T05:21:56.694Z,12.87
2022-10-16T05:24:25.422Z,12.84
2022-10-16T05:26:54.002Z,12.84
2022-10-16T05:29:22.713Z,12.79
2022-10-16T05:31:54.022Z,12.70
2022-10-16T05:34:24.974Z,12.70
2022-10-16T05:36:53.946Z,12.68
2022-10-16T05:39:22.715Z,12.61
2022-10-16T05:41:53.511Z,12.66
2022-10-16T05:44:22.125Z,12.73
2022-10-16T05:46:50.776Z,12.79
2022-10-16T05:49:19.737Z,12.80
2022-10-16T05:51:49.734Z,12.87
2022-10-16T05:54:18.826Z,12.92
2022-10-16T05:56:47.552Z,12.96
2022-10-16T05:59:16.594Z,13.02
2022-10-16T06:01:45.035Z,13.07
2022-10-16T06:04:13.656Z,13.13
2022-10-16T06:06:42.224Z,13.19
2022-10-16T06:09:12.974Z,13.31
2022-10-16T06:11:42.201Z,13.42
2022-10-16T06:14:11.303Z,13.51
2022-10-16T06:16:40.179Z,13.54
2022-10-16T06:19:09.623Z,13.56
2022-10-16T06:21:38.174Z,13.56
2022-10-16T06:24:06.794Z,13.29
2022-10-16T06:26:36.760Z,13.57
2022-10-16T06:29:05.428Z,13.63
2022-10-16T06:31:34.635Z,13.68
2022-10-16T06:34:06.021Z,13.73
2022-10-16T06:36:34.621Z,13.77
2022-10-16T06:39:03.107Z,13.79
2022-10-16T06:41:32.138Z,13.84
2022-10-16T06:44:09.588Z,13.89
2022-10-16T06:46:38.322Z,13.91
2022-10-16T06:49:06.919Z,13.92
2022-10-16T06:51:40.458Z,13.88
2022-10-16T06:54:11.963Z,13.99
2022-10-16T06:56:40.605Z,14.00
2022-10-16T06:59:10.638Z,14.04
2022-10-16T07:01:39.661Z,14.05
2022-10-16T07:04:08.138Z,14.05
2022-10-16T07:12:56.805Z,14.22
2022-10-16T07:15:27.522Z,14.26
2022-10-16T07:17:56.226Z,14.31
2022-10-16T07:20:24.919Z,14.31
2022-10-16T07:22:53.918Z,14.36
2022-10-16T07:25:22.365Z,14.42
2022-10-16T07:27:50.908Z,14.48
2022-10-16T07:30:19.449Z,14.55
2022-10-16T07:32:49.539Z,14.61
2022-10-16T07:35:18.621Z,14.67
2022-10-16T07:37:47.762Z,14.73
2022-10-16T07:40:16.726Z,14.77
2022-10-16T07:42:45.847Z,14.84
2022-10-16T07:45:14.366Z,14.89
2022-10-16T07:47:42.989Z,14.94
2022-10-16T07:50:12.993Z,15.00
2022-10-16T07:52:41.771Z,15.06
2022-10-16T07:55:10.994Z,15.13
2022-10-16T07:57:39.667Z,15.20
2022-10-16T08:00:14.525Z,15.27
2022-10-16T08:02:44.055Z,15.36
2022-10-16T08:05:14.057Z,15.43
2022-10-16T08:07:42.790Z,15.49
2022-10-16T08:10:19.304Z,15.60
2022-10-16T08:12:47.864Z,15.70
2022-10-16T08:15:16.529Z,15.75
2022-10-16T08:17:45.127Z,15.75
2022-10-16T08:20:15.033Z,15.78
2022-10-16T08:22:43.467Z,15.82
2022-10-16T08:25:12.109Z,15.82
2022-10-16T08:27:40.707Z,15.82
2022-10-16T08:30:11.140Z,15.84
2022-10-16T08:32:40.187Z,15.88
2022-10-16T08:35:10.285Z,15.95
2022-10-16T08:37:41.114Z,16.07
2022-10-16T08:40:20.429Z,16.21
2022-10-16T08:43:11.153Z,16.34
2022-10-16T08:45:55.930Z,16.43
2022-10-16T08:48:32.211Z,16.48
2022-10-16T08:51:00.888Z,16.49
2022-10-16T08:53:36.479Z,16.50
2022-10-16T08:56:05.266Z,16.53
2022-10-16T08:58:33.867Z,16.54
2022-10-16T09:01:04.657Z,16.54
2022-10-16T09:03:50.640Z,16.53
2022-10-16T09:06:41.839Z,16.58
2022-10-16T09:09:34.545Z,16.63
2022-10-16T09:12:10.328Z,16.66
2022-10-16T09:15:00.009Z,16.70
2022-10-16T09:17:38.857Z,16.72
2022-10-16T09:20:28.040Z,16.82
2022-10-16T09:23:17.279Z,16.89
2022-10-16T09:25:50.181Z,16.95
2022-10-16T09:28:21.089Z,17.02
2022-10-16T09:30:50.974Z,17.07
2022-10-16T09:33:20.620Z,17.10
2022-10-16T09:35:51.477Z,17.13
2022-10-16T09:38:29.754Z,17.34
2022-10-16T09:41:03.674Z,17.67
2022-10-16T09:43:41.313Z,17.99
2022-10-16T09:46:23.717Z,18.17
2022-10-16T09:48:54.639Z,18.33
2022-10-16T09:51:26.502Z,18.41
2022-10-16T09:53:59.578Z,18.54
2022-10-16T09:56:31.170Z,18.72
2022-10-16T09:59:01.770Z,18.89
2022-10-16T10:01:38.821Z,18.85
2022-10-16T10:04:08.436Z,18.82
2022-10-16T10:06:39.129Z,18.81
2022-10-16T10:09:18.106Z,18.71
2022-10-16T10:11:51.757Z,18.61
2022-10-16T10:14:29.863Z,18.55
2022-10-16T10:17:14.003Z,18.54
2022-10-16T10:19:47.323Z,18.55
2022-10-16T10:22:38.003Z,18.59
2022-10-16T10:25:21.717Z,18.65
2022-10-16T10:28:06.282Z,18.72
2022-10-16T10:30:43.124Z,18.73
2022-10-16T10:33:23.914Z,18.70
2022-10-16T10:35:59.563Z,18.70
2022-10-16T10:38:38.775Z,18.73
2022-10-16T10:41:27.908Z,18.77
2022-10-16T10:44:08.690Z,18.73
2022-10-16T10:46:45.441Z,18.82
2022-10-16T10:49:37.801Z,18.80
2022-10-16T10:52:21.981Z,18.79
2022-10-16T10:54:58.176Z,18.79
2022-10-16T11:00:23.973Z,18.81
2022-10-16T11:03:01.636Z,18.80
2022-10-16T11:05:44.466Z,18.81
2022-10-16T11:08:19.824Z,18.81
2022-10-16T11:10:54.733Z,18.83
2022-10-16T11:13:37.001Z,18.85
2022-10-16T11:16:20.620Z,18.92
2022-10-16T11:18:58.122Z,19.01
2022-10-16T11:21:31.266Z,19.05
2022-10-16T11:24:07.195Z,19.12
2022-10-16T11:26:41.174Z,19.17
2022-10-16T11:29:18.411Z,19.20
2022-10-16T11:31:52.915Z,19.17
2022-10-16T11:34:34.224Z,19.12
2022-10-16T11:37:13.042Z,19.11
2022-10-16T11:39:43.477Z,19.15
2022-10-16T11:42:16.088Z,19.14
2022-10-16T11:45:03.623Z,19.13
2022-10-16T11:47:58.212Z,19.14
2022-10-16T11:50:34.009Z,19.21
2022-10-16T11:53:12.094Z,19.39
2022-10-16T11:55:46.204Z,19.55
2022-10-16T11:58:25.291Z,19.86
2022-10-16T12:01:02.695Z,20.18
2022-10-16T12:03:43.450Z,20.54
2022-10-16T12:06:27.686Z,20.77
2022-10-16T12:08:57.890Z,20.95
2022-10-16T12:11:35.584Z,21.28
2022-10-16T12:14:23.353Z,21.30
2022-10-16T12:16:58.044Z,21.17
2022-10-16T12:19:30.414Z,21.03
2022-10-16T12:22:01.944Z,21.06
2022-10-16T12:24:35.978Z,20.94
2022-10-16T12:27:06.466Z,20.94
2022-10-16T12:29:38.635Z,21.10
2022-10-16T12:32:41.982Z,21.27
2022-10-16T12:35:24.305Z,21.34
2022-10-16T12:37:53.775Z,21.25
2022-10-16T12:40:32.355Z,21.34
2022-10-16T12:43:01.426Z,21.59
2022-10-16T12:45:33.380Z,21.63
2022-10-16T12:48:04.668Z,21.61
2022-10-16T12:50:37.807Z,21.67
2022-10-16T12:53:20.386Z,21.57
2022-10-16T12:56:00.480Z,21.72
2022-10-16T12:58:55.472Z,21.80
2022-10-16T13:01:35.852Z,21.85
2022-10-16T13:04:23.162Z,21.78
2022-10-16T13:07:01.392Z,21.68
2022-10-16T13:09:46.162Z,21.51
2022-10-16T13:12:33.984Z,21.69
2022-10-16T13:15:19.391Z,21.83
2022-10-16T13:17:57.250Z,21.93
2022-10-16T13:20:33.431Z,21.59
2022-10-16T13:23:16.471Z,21.41
2022-10-16T13:26:01.225Z,21.32
2022-10-16T13:28:32.708Z,21.31
2022-10-16T13:31:03.626Z,21.19
2022-10-16T13:33:37.515Z,21.22
2022-10-16T13:36:07.906Z,21.15
2022-10-16T13:38:39.182Z,21.05
2022-10-16T13:41:17.584Z,20.96
2022-10-16T13:43:49.203Z,20.89
2022-10-16T13:46:19.385Z,20.83
2022-10-16T13:48:59.702Z,20.65
2022-10-16T13:51:29.072Z,20.62
2022-10-16T13:54:00.050Z,20.57
2022-10-16T13:56:30.867Z,20.50
2022-10-16T13:59:03.880Z,20.39
2022-10-16T14:01:35.772Z,20.35
2022-10-16T14:04:08.142Z,20.27
2022-10-16T14:06:38.666Z,20.30
2022-10-16T14:09:16.403Z,20.27
2022-10-16T14:11:50.502Z,20.21
2022-10-16T14:14:19.793Z,20.22
2022-10-16T14:16:50.318Z,20.20
2022-10-16T14:19:23.122Z,20.17
2022-10-16T14:21:53.018Z,20.09
2022-10-16T14:24:33.308Z,20.03
2022-10-16T14:27:02.876Z,19.96
2022-10-16T14:29:33.517Z,19.86
2022-10-16T14:32:04.234Z,19.74
2022-10-16T14:34:34.934Z,19.69
2022-10-16T14:37:10.955Z,19.63
2022-10-16T14:39:42.272Z,19.57
2022-10-16T14:42:18.904Z,19.54
2022-10-16T14:44:49.010Z,19.51
2022-10-16T14:47:23.849Z,19.47
2022-10-16T14:49:52.780Z,19.37
2022-10-16T14:52:21.308Z,19.24
2022-10-16T14:54:56.063Z,19.12
2022-10-16T14:57:29.608Z,19.12
2022-10-16T15:00:00.135Z,19.09
2022-10-16T15:02:32.553Z,19.05
2022-10-16T15:05:13.746Z,18.99
2022-10-16T15:07:42.272Z,18.93
2022-10-16T15:10:12.372Z,18.87
2022-10-16T15:12:41.709Z,18.78
2022-10-16T15:15:33.461Z,18.67
2022-10-16T15:18:03.974Z,18.59
2022-10-16T15:20:35.035Z,18.54
2022-10-16T15:23:04.906Z,18.47
2022-10-16T15:25:41.074Z,18.40
2022-10-16T15:28:10.517Z,18.40
2022-10-16T15:30:39.875Z,18.27
2022-10-16T15:33:14.549Z,18.12
2022-10-16T15:35:43.337Z,18.06
2022-10-16T15:38:15.128Z,17.92
2022-10-16T15:40:45.068Z,17.87
2022-10-16T15:43:13.676Z,17.91
2022-10-16T15:45:42.244Z,17.99
2022-10-16T15:48:13.094Z,17.97
2022-10-16T15:53:13.302Z,17.81
2022-10-16T15:55:41.825Z,17.68
2022-10-16T15:58:12.716Z,17.52
2022-10-16T16:00:41.458Z,17.38
2022-10-16T16:03:09.884Z,17.21
2022-10-16T16:05:45.657Z,17.06
2022-10-16T16:08:15.286Z,16.93
2022-10-16T16:10:43.742Z,16.79
2022-10-16T16:13:14.124Z,16.67
2022-10-16T16:15:42.912Z,16.59
2022-10-16T16:18:11.786Z,16.47
2022-10-16T16:20:40.975Z,16.37
2022-10-16T16:23:09.646Z,16.28
2022-10-16T16:25:38.214Z,16.17
2022-10-16T16:28:08.325Z,16.04
2022-10-16T16:30:38.315Z,15.98
2022-10-16T16:33:06.866Z,15.90
2022-10-16T16:35:35.274Z,15.81
2022-10-16T16:38:03.778Z,15.70
2022-10-16T16:40:32.986Z,15.63
2022-10-16T16:43:03.722Z,15.57
2022-10-16T16:45:32.315Z,15.58
2022-10-16T16:48:02.157Z,15.54
2022-10-16T16:50:30.916Z,15.54
2022-10-16T16:52:59.495Z,15.50
2022-10-16T16:55:28.085Z,15.49
2022-10-16T16:57:57.957Z,15.41
2022-10-16T17:00:26.542Z,15.29
2022-10-16T17:02:55.204Z,15.30
2022-10-16T17:05:25.385Z,15.35
2022-10-16T17:07:54.027Z,15.29
2022-10-16T17:10:22.475Z,15.22
2022-10-16T17:12:51.454Z,15.15
2022-10-16T17:15:19.968Z,15.13
2022-10-16T17:17:48.473Z,15.04
2022-10-16T17:20:17.167Z,15.03
2022-10-16T17:22:50.426Z,14.92
2022-10-16T17:25:19.104Z,14.89
2022-10-16T17:27:47.640Z,14.92
2022-10-16T17:30:16.325Z,14.95
2022-10-16T17:32:44.866Z,14.96
2022-10-16T17:35:13.395Z,14.98
2022-10-16T17:37:42.264Z,14.97
2022-10-16T17:42:43.308Z,14.90
2022-10-16T17:45:13.855Z,14.90
2022-10-16T17:47:43.066Z,14.91
2022-10-16T17:50:14.847Z,14.87
2022-10-16T17:52:44.619Z,14.84
2022-10-16T17:55:14.927Z,14.83
2022-10-16T17:57:43.560Z,14.75
2022-10-16T18:00:13.231Z,14.73
2022-10-16T18:02:42.745Z,14.69
2022-10-16T18:05:11.717Z,14.67
2022-10-16T18:10:13.534Z,14.59
2022-10-16T18:12:44.064Z,14.59
2022-10-16T18:15:12.994Z,14.58
2022-10-16T18:17:41.510Z,14.57
2022-10-16T18:20:10.966Z,14.53
2022-10-16T18:22:39.598Z,14.47
2022-10-16T18:25:08.972Z,14.46
2022-10-16T18:27:37.531Z,14.44
2022-10-16T18:30:08.550Z,14.46
2022-10-16T18:32:37.127Z,14.46
2022-10-16T18:35:06.149Z,14.47
2022-10-16T18:37:37.207Z,14.43
2022-10-16T18:40:06.438Z,14.38
2022-10-16T18:42:35.139Z,14.33
2022-10-16T18:45:03.698Z,14.30
2022-10-16T18:47:33.690Z,14.29
2022-10-16T18:50:02.337Z,14.25
2022-10-16T18:52:31.787Z,14.24
2022-10-16T18:55:01.136Z,14.23
2022-10-16T18:57:31.256Z,14.17
2022-10-16T19:00:01.117Z,14.11
2022-10-16T19:02:29.637Z,14.07
2022-10-16T19:05:02.608Z,14.00
2022-10-16T19:07:34.015Z,13.98
2022-10-16T19:10:02.597Z,13.95
2022-10-16T19:12:31.117Z,13.89
2022-10-16T19:14:59.793Z,13.84
2022-10-16T19:17:28.486Z,13.77
2022-10-16T19:19:57.267Z,13.78
2022-10-16T19:22:51.082Z,13.66
2022-10-16T19:25:22.719Z,13.67
2022-10-16T19:27:52.390Z,13.63
2022-10-16T19:30:20.846Z,13.63
2022-10-16T19:32:49.749Z,13.53
2022-10-16T19:35:18.605Z,13.57
2022-10-16T19:37:51.518Z,13.57
2022-10-16T19:40:20.248Z,13.58
2022-10-16T19:42:49.290Z,13.51
2022-10-16T19:45:18.048Z,13.50
2022-10-16T19:47:46.759Z,13.44
2022-10-16T19:50:19.155Z,13.39
2022-10-16T19:52:51.617Z,13.42
2022-10-16T19:55:20.627Z,13.41
2022-10-16T19:57:49.685Z,13.39
2022-10-16T20:00:18.976Z,13.40
2022-10-16T20:02:48.385Z,13.37
2022-10-16T20:05:17.066Z,13.30
2022-10-16T20:07:45.909Z,13.28
2022-10-16T20:10:15.947Z,13.28
2022-10-16T20:12:44.474Z,13.23
2022-10-16T20:15:12.998Z,13.21
2022-10-16T20:17:41.725Z,13.18
2022-10-16T20:20:10.967Z,13.18
2022-10-16T20:22:39.789Z,13.07
2022-10-16T20:25:10.161Z,13.10
2022-10-16T20:27:40.359Z,13.09
2022-10-16T20:30:09.988Z,13.07
2022-10-16T20:32:38.697Z,13.06
2022-10-16T20:35:08.269Z,13.04
2022-10-16T20:37:36.699Z,13.00
2022-10-16T20:40:06.055Z,12.97
2022-10-16T20:42:34.797Z,12.92
2022-10-16T20:45:05.260Z,12.92
2022-10-16T20:47:33.979Z,12.93
2022-10-16T20:50:02.568Z,12.90
2022-10-16T20:52:34.621Z,12.84
2022-10-16T20:55:04.877Z,12.83
2022-10-16T20:57:33.632Z,12.82
2022-10-16T21:00:02.237Z,12.78
2022-10-16T21:02:32.628Z,12.78
2022-10-16T21:05:01.338Z,12.77
2022-10-16T21:07:30.229Z,12.72
2022-10-16T21:10:00.121Z,12.75
2022-10-16T21:12:29.010Z,12.76
2022-10-16T21:15:13.909Z,12.75
2022-10-16T21:17:45.348Z,12.70
2022-10-16T21:20:13.888Z,12.67
2022-10-16T21:22:42.349Z,12.69
2022-10-16T21:25:11.307Z,12.67
2022-10-16T21:27:40.626Z,12.66
2022-10-16T21:30:11.322Z,12.61
2022-10-16T21:32:40.676Z,12.62
2022-10-16T21:35:10.967Z,12.59
2022-10-16T21:37:39.879Z,12.58
2022-10-16T21:40:09.578Z,12.59
2022-10-16T21:42:38.166Z,12.59
2022-10-16T21:45:07.556Z,12.59
2022-10-16T21:47:36.278Z,12.59
2022-10-16T21:50:05.290Z,12.58
2022-10-16T21:52:35.307Z,12.53
2022-10-16T21:55:03.914Z,12.52
2022-10-16T21:57:32.414Z,12.49
2022-10-16T22:00:03.124Z,12.46
2022-10-16T22:02:35.928Z,12.44
2022-10-16T22:05:04.796Z,12.39
2022-10-16T22:07:34.746Z,12.35
2022-10-16T22:10:03.474Z,12.34
2022-10-16T22:12:31.930Z,12.31
2022-10-16T22:15:00.506Z,12.33
2022-10-16T22:17:29.463Z,12.31
2022-10-16T22:19:58.418Z,12.33
2022-10-16T22:22:26.948Z,12.32
2022-10-16T22:24:57.038Z,12.29
2022-10-16T22:27:26.217Z,12.30
2022-10-16T22:29:55.015Z,12.26
2022-10-16T22:32:24.684Z,12.14
2022-10-16T22:34:53.334Z,12.19
2022-10-16T22:37:22.044Z,11.99
2022-10-16T22:39:50.619Z,12.14
2022-10-16T22:42:20.704Z,12.16
2022-10-16T22:44:49.267Z,12.14
2022-10-16T22:47:18.114Z,12.14
2022-10-16T22:49:46.678Z,12.13
2022-10-16T22:52:15.578Z,12.09
2022-10-16T22:54:44.199Z,12.07
2022-10-16T22:57:12.817Z,12.07
2022-10-16T22:59:42.838Z,12.01
2022-10-16T23:02:12.352Z,11.93
2022-10-16T23:04:40.878Z,12.00
2022-10-16T23:07:09.554Z,12.02
2022-10-16T23:09:38.223Z,12.01
2022-10-16T23:12:07.186Z,11.95
2022-10-16T23:14:35.745Z,11.89
2022-10-16T23:17:06.496Z,11.89
2022-10-16T23:19:34.926Z,11.90
2022-10-16T23:22:03.559Z,11.93
2022-10-16T23:24:32.577Z,11.93
2022-10-16T23:27:01.057Z,11.93
2022-10-16T23:29:29.667Z,11.87
2022-10-16T23:31:58.646Z,11.85
2022-10-16T23:34:28.758Z,11.85
2022-10-16T23:36:57.355Z,11.82
2022-10-16T23:39:25.967Z,11.82
2022-10-16T23:41:54.571Z,11.80
2022-10-16T23:44:23.119Z,11.76
2022-10-16T23:46:52.108Z,11.71
2022-10-16T23:49:20.610Z,11.71
2022-10-16T23:51:50.656Z,11.69
2022-10-16T23:54:19.724Z,11.69
2022-10-16T23:56:48.298Z,11.68
2022-10-16T23:59:16.794Z,11.64
